sensor_id;sensor_type;location;lat;lon;timestamp;P1;durP1;ratioP1;P2;durP2;ratioP2
23608;SDS011;11982;50.810;4.442;2023-04-03T00:01:06;26.48;;;14.52;;
23608;SDS011;11982;50.810;4.442;2023-04-03T00:03:32;26.85;;;15.18;;
23608;SDS011;11982;50.810;4.442;2023-04-03T00:05:58;32.00;;;17.20;;
23608;SDS011;11982;50.810;4.442;2023-04-03T00:08:25;23.23;;;14.93;;
23608;SDS011;11982;50.810;4.442;2023-04-03T00:10:50;32.17;;;16.13;;
23608;SDS011;11982;50.810;4.442;2023-04-03T00:13:16;33.97;;;16.52;;
23608;SDS011;11982;50.810;4.442;2023-04-03T00:15:42;29.27;;;16.05;;
23608;SDS011;11982;50.810;4.442;2023-04-03T00:18:08;31.95;;;16.40;;
23608;SDS011;11982;50.810;4.442;2023-04-03T00:20:34;31.55;;;16.77;;
23608;SDS011;11982;50.810;4.442;2023-04-03T00:23:00;32.08;;;15.93;;
23608;SDS011;11982;50.810;4.442;2023-04-03T00:25:27;36.30;;;18.05;;
23608;SDS011;11982;50.810;4.442;2023-04-03T00:27:53;29.13;;;16.02;;
23608;SDS011;11982;50.810;4.442;2023-04-03T00:30:19;30.30;;;15.88;;
23608;SDS011;11982;50.810;4.442;2023-04-03T00:32:50;30.13;;;16.75;;
23608;SDS011;11982;50.810;4.442;2023-04-03T00:35:17;30.65;;;16.30;;
23608;SDS011;11982;50.810;4.442;2023-04-03T00:37:43;29.85;;;16.63;;
23608;SDS011;11982;50.810;4.442;2023-04-03T00:40:10;25.08;;;15.73;;
23608;SDS011;11982;50.810;4.442;2023-04-03T00:42:37;34.53;;;17.00;;
23608;SDS011;11982;50.810;4.442;2023-04-03T00:47:29;25.48;;;15.82;;
23608;SDS011;11982;50.810;4.442;2023-04-03T00:49:56;29.50;;;14.25;;
23608;SDS011;11982;50.810;4.442;2023-04-03T00:52:23;25.05;;;15.20;;
23608;SDS011;11982;50.810;4.442;2023-04-03T00:54:53;28.33;;;15.00;;
23608;SDS011;11982;50.810;4.442;2023-04-03T00:57:22;22.92;;;14.90;;
23608;SDS011;11982;50.810;4.442;2023-04-03T00:59:51;26.67;;;15.27;;
23608;SDS011;11982;50.810;4.442;2023-04-03T01:02:21;26.42;;;14.88;;
23608;SDS011;11982;50.810;4.442;2023-04-03T01:04:47;26.98;;;14.68;;
23608;SDS011;11982;50.810;4.442;2023-04-03T01:07:16;26.30;;;15.60;;
23608;SDS011;11982;50.810;4.442;2023-04-03T01:09:45;27.80;;;15.25;;
23608;SDS011;11982;50.810;4.442;2023-04-03T01:12:34;32.40;;;16.50;;
23608;SDS011;11982;50.810;4.442;2023-04-03T01:15:04;34.33;;;16.00;;
23608;SDS011;11982;50.810;4.442;2023-04-03T01:25:22;26.98;;;15.40;;
23608;SDS011;11982;50.810;4.442;2023-04-03T01:27:48;31.23;;;16.08;;
23608;SDS011;11982;50.810;4.442;2023-04-03T01:30:14;25.55;;;15.02;;
23608;SDS011;11982;50.810;4.442;2023-04-03T01:32:43;29.75;;;15.80;;
23608;SDS011;11982;50.810;4.442;2023-04-03T01:35:09;25.38;;;14.55;;
23608;SDS011;11982;50.810;4.442;2023-04-03T01:37:36;31.77;;;15.40;;
23608;SDS011;11982;50.810;4.442;2023-04-03T01:40:02;28.15;;;15.90;;
23608;SDS011;11982;50.810;4.442;2023-04-03T01:42:28;29.92;;;15.77;;
23608;SDS011;11982;50.810;4.442;2023-04-03T01:44:54;28.08;;;15.98;;
23608;SDS011;11982;50.810;4.442;2023-04-03T01:47:20;31.45;;;17.17;;
23608;SDS011;11982;50.810;4.442;2023-04-03T01:49:47;24.65;;;15.10;;
23608;SDS011;11982;50.810;4.442;2023-04-03T01:52:12;24.50;;;15.55;;
23608;SDS011;11982;50.810;4.442;2023-04-03T01:54:38;30.75;;;17.13;;
23608;SDS011;11982;50.810;4.442;2023-04-03T01:57:04;31.45;;;16.35;;
23608;SDS011;11982;50.810;4.442;2023-04-03T01:59:29;30.17;;;15.23;;
23608;SDS011;11982;50.810;4.442;2023-04-03T02:01:55;25.75;;;16.20;;
23608;SDS011;11982;50.810;4.442;2023-04-03T02:04:21;32.72;;;15.68;;
23608;SDS011;11982;50.810;4.442;2023-04-03T02:06:47;25.13;;;15.07;;
23608;SDS011;11982;50.810;4.442;2023-04-03T02:09:13;29.08;;;16.45;;
23608;SDS011;11982;50.810;4.442;2023-04-03T02:11:39;24.90;;;15.27;;
23608;SDS011;11982;50.810;4.442;2023-04-03T02:14:04;27.25;;;15.05;;
23608;SDS011;11982;50.810;4.442;2023-04-03T02:16:30;26.40;;;16.40;;
23608;SDS011;11982;50.810;4.442;2023-04-03T02:18:56;26.88;;;14.82;;
23608;SDS011;11982;50.810;4.442;2023-04-03T02:21:22;26.08;;;14.48;;
23608;SDS011;11982;50.810;4.442;2023-04-03T02:23:48;25.15;;;15.50;;
23608;SDS011;11982;50.810;4.442;2023-04-03T02:26:14;28.02;;;15.38;;
23608;SDS011;11982;50.810;4.442;2023-04-03T02:28:41;30.65;;;15.20;;
23608;SDS011;11982;50.810;4.442;2023-04-03T02:31:07;26.05;;;15.02;;
23608;SDS011;11982;50.810;4.442;2023-04-03T02:33:34;25.45;;;15.27;;
23608;SDS011;11982;50.810;4.442;2023-04-03T02:36:04;26.67;;;14.98;;
23608;SDS011;11982;50.810;4.442;2023-04-03T02:38:30;26.25;;;14.93;;
23608;SDS011;11982;50.810;4.442;2023-04-03T02:41:06;29.60;;;15.48;;
23608;SDS011;11982;50.810;4.442;2023-04-03T02:43:33;29.30;;;15.43;;
23608;SDS011;11982;50.810;4.442;2023-04-03T02:46:00;30.83;;;14.82;;
23608;SDS011;11982;50.810;4.442;2023-04-03T02:48:25;25.33;;;14.43;;
23608;SDS011;11982;50.810;4.442;2023-04-03T02:50:51;27.45;;;15.18;;
23608;SDS011;11982;50.810;4.442;2023-04-03T02:53:17;28.08;;;14.63;;
23608;SDS011;11982;50.810;4.442;2023-04-03T02:55:43;26.80;;;15.13;;
23608;SDS011;11982;50.810;4.442;2023-04-03T02:58:10;30.25;;;16.55;;
23608;SDS011;11982;50.810;4.442;2023-04-03T03:00:36;32.83;;;15.98;;
23608;SDS011;11982;50.810;4.442;2023-04-03T03:03:02;35.65;;;16.60;;
23608;SDS011;11982;50.810;4.442;2023-04-03T03:05:28;30.40;;;16.65;;
23608;SDS011;11982;50.810;4.442;2023-04-03T03:07:54;30.63;;;17.00;;
23608;SDS011;11982;50.810;4.442;2023-04-03T03:10:20;42.13;;;18.73;;
23608;SDS011;11982;50.810;4.442;2023-04-03T03:12:47;37.15;;;18.50;;
23608;SDS011;11982;50.810;4.442;2023-04-03T03:15:13;37.40;;;18.25;;
23608;SDS011;11982;50.810;4.442;2023-04-03T03:17:40;37.65;;;17.38;;
23608;SDS011;11982;50.810;4.442;2023-04-03T03:20:06;38.13;;;18.33;;
23608;SDS011;11982;50.810;4.442;2023-04-03T03:22:33;30.75;;;16.52;;
23608;SDS011;11982;50.810;4.442;2023-04-03T03:24:59;34.55;;;16.73;;
23608;SDS011;11982;50.810;4.442;2023-04-03T03:27:25;31.15;;;16.92;;
23608;SDS011;11982;50.810;4.442;2023-04-03T03:29:51;32.33;;;16.83;;
23608;SDS011;11982;50.810;4.442;2023-04-03T03:32:17;26.63;;;15.57;;
23608;SDS011;11982;50.810;4.442;2023-04-03T03:34:43;30.17;;;15.20;;
23608;SDS011;11982;50.810;4.442;2023-04-03T03:37:08;27.65;;;15.63;;
23608;SDS011;11982;50.810;4.442;2023-04-03T03:39:34;32.85;;;14.60;;
23608;SDS011;11982;50.810;4.442;2023-04-03T03:42:00;35.63;;;16.23;;
23608;SDS011;11982;50.810;4.442;2023-04-03T03:44:25;32.63;;;15.80;;
23608;SDS011;11982;50.810;4.442;2023-04-03T03:46:52;36.25;;;16.23;;
23608;SDS011;11982;50.810;4.442;2023-04-03T03:49:18;28.00;;;16.67;;
23608;SDS011;11982;50.810;4.442;2023-04-03T03:51:44;27.52;;;15.93;;
23608;SDS011;11982;50.810;4.442;2023-04-03T03:54:10;30.02;;;16.10;;
23608;SDS011;11982;50.810;4.442;2023-04-03T03:56:36;27.17;;;15.82;;
23608;SDS011;11982;50.810;4.442;2023-04-03T03:59:01;28.23;;;16.17;;
23608;SDS011;11982;50.810;4.442;2023-04-03T04:01:27;28.13;;;15.70;;
23608;SDS011;11982;50.810;4.442;2023-04-03T04:03:53;26.73;;;15.25;;
23608;SDS011;11982;50.810;4.442;2023-04-03T04:06:20;32.00;;;16.65;;
23608;SDS011;11982;50.810;4.442;2023-04-03T04:08:46;31.42;;;16.67;;
23608;SDS011;11982;50.810;4.442;2023-04-03T04:11:12;29.88;;;15.93;;
23608;SDS011;11982;50.810;4.442;2023-04-03T04:13:37;29.85;;;15.70;;
23608;SDS011;11982;50.810;4.442;2023-04-03T04:16:03;32.78;;;16.27;;
23608;SDS011;11982;50.810;4.442;2023-04-03T04:18:29;29.17;;;16.15;;
23608;SDS011;11982;50.810;4.442;2023-04-03T04:20:55;27.85;;;15.70;;
23608;SDS011;11982;50.810;4.442;2023-04-03T04:23:20;27.08;;;15.93;;
23608;SDS011;11982;50.810;4.442;2023-04-03T04:25:46;32.35;;;16.55;;
23608;SDS011;11982;50.810;4.442;2023-04-03T04:28:13;26.70;;;16.35;;
23608;SDS011;11982;50.810;4.442;2023-04-03T04:30:39;33.25;;;16.35;;
23608;SDS011;11982;50.810;4.442;2023-04-03T04:33:05;31.35;;;16.75;;
23608;SDS011;11982;50.810;4.442;2023-04-03T04:35:31;38.85;;;16.85;;
23608;SDS011;11982;50.810;4.442;2023-04-03T04:37:57;33.40;;;17.27;;
23608;SDS011;11982;50.810;4.442;2023-04-03T04:40:23;30.35;;;16.85;;
23608;SDS011;11982;50.810;4.442;2023-04-03T04:42:49;34.80;;;17.25;;
23608;SDS011;11982;50.810;4.442;2023-04-03T04:45:15;35.72;;;17.08;;
23608;SDS011;11982;50.810;4.442;2023-04-03T04:47:41;33.17;;;16.92;;
23608;SDS011;11982;50.810;4.442;2023-04-03T04:50:07;32.40;;;17.35;;
23608;SDS011;11982;50.810;4.442;2023-04-03T04:52:33;36.63;;;17.40;;
23608;SDS011;11982;50.810;4.442;2023-04-03T04:54:59;34.42;;;17.98;;
23608;SDS011;11982;50.810;4.442;2023-04-03T04:57:25;38.72;;;18.10;;
23608;SDS011;11982;50.810;4.442;2023-04-03T04:59:50;39.88;;;19.45;;
23608;SDS011;11982;50.810;4.442;2023-04-03T05:02:16;40.58;;;19.13;;
23608;SDS011;11982;50.810;4.442;2023-04-03T05:04:42;38.65;;;19.67;;
23608;SDS011;11982;50.810;4.442;2023-04-03T05:07:07;46.22;;;20.58;;
23608;SDS011;11982;50.810;4.442;2023-04-03T05:09:33;34.42;;;18.05;;
23608;SDS011;11982;50.810;4.442;2023-04-03T05:11:58;38.03;;;18.77;;
23608;SDS011;11982;50.810;4.442;2023-04-03T05:14:24;31.92;;;18.40;;
23608;SDS011;11982;50.810;4.442;2023-04-03T05:16:50;33.17;;;18.27;;
23608;SDS011;11982;50.810;4.442;2023-04-03T05:19:20;31.45;;;17.45;;
23608;SDS011;11982;50.810;4.442;2023-04-03T05:21:46;34.53;;;17.95;;
23608;SDS011;11982;50.810;4.442;2023-04-03T05:24:12;32.65;;;18.13;;
23608;SDS011;11982;50.810;4.442;2023-04-03T05:26:41;34.40;;;18.13;;
23608;SDS011;11982;50.810;4.442;2023-04-03T05:29:08;34.78;;;18.60;;
23608;SDS011;11982;50.810;4.442;2023-04-03T05:31:34;38.50;;;18.77;;
23608;SDS011;11982;50.810;4.442;2023-04-03T05:34:00;35.17;;;19.08;;
23608;SDS011;11982;50.810;4.442;2023-04-03T05:36:25;37.30;;;17.08;;
23608;SDS011;11982;50.810;4.442;2023-04-03T05:38:51;36.15;;;17.73;;
23608;SDS011;11982;50.810;4.442;2023-04-03T05:41:18;31.35;;;18.08;;
23608;SDS011;11982;50.810;4.442;2023-04-03T05:43:44;36.28;;;21.00;;
23608;SDS011;11982;50.810;4.442;2023-04-03T05:46:13;52.50;;;29.08;;
23608;SDS011;11982;50.810;4.442;2023-04-03T05:48:40;44.38;;;26.52;;
23608;SDS011;11982;50.810;4.442;2023-04-03T05:51:09;43.53;;;21.90;;
23608;SDS011;11982;50.810;4.442;2023-04-03T05:53:42;40.17;;;21.30;;
23608;SDS011;11982;50.810;4.442;2023-04-03T05:56:10;41.63;;;20.98;;
23608;SDS011;11982;50.810;4.442;2023-04-03T05:58:36;35.88;;;19.35;;
23608;SDS011;11982;50.810;4.442;2023-04-03T06:01:01;36.25;;;20.30;;
23608;SDS011;11982;50.810;4.442;2023-04-03T06:03:27;37.95;;;19.45;;
23608;SDS011;11982;50.810;4.442;2023-04-03T06:05:53;38.00;;;20.10;;
23608;SDS011;11982;50.810;4.442;2023-04-03T06:08:19;42.97;;;20.73;;
23608;SDS011;11982;50.810;4.442;2023-04-03T06:10:45;36.85;;;20.42;;
23608;SDS011;11982;50.810;4.442;2023-04-03T06:13:11;35.60;;;20.42;;
23608;SDS011;11982;50.810;4.442;2023-04-03T06:15:37;35.45;;;20.60;;
23608;SDS011;11982;50.810;4.442;2023-04-03T06:18:04;39.08;;;21.05;;
23608;SDS011;11982;50.810;4.442;2023-04-03T06:20:30;37.70;;;20.83;;
23608;SDS011;11982;50.810;4.442;2023-04-03T06:22:56;35.33;;;20.88;;
23608;SDS011;11982;50.810;4.442;2023-04-03T06:25:22;38.10;;;20.85;;
23608;SDS011;11982;50.810;4.442;2023-04-03T06:27:47;38.47;;;20.73;;
23608;SDS011;11982;50.810;4.442;2023-04-03T06:30:13;38.00;;;21.65;;
23608;SDS011;11982;50.810;4.442;2023-04-03T06:32:39;41.83;;;20.63;;
23608;SDS011;11982;50.810;4.442;2023-04-03T06:35:05;38.55;;;19.73;;
23608;SDS011;11982;50.810;4.442;2023-04-03T06:37:31;34.63;;;19.92;;
23608;SDS011;11982;50.810;4.442;2023-04-03T06:39:57;41.17;;;21.45;;
23608;SDS011;11982;50.810;4.442;2023-04-03T06:42:25;34.30;;;21.50;;
23608;SDS011;11982;50.810;4.442;2023-04-03T06:44:51;39.20;;;21.02;;
23608;SDS011;11982;50.810;4.442;2023-04-03T06:47:16;39.35;;;22.02;;
23608;SDS011;11982;50.810;4.442;2023-04-03T06:49:43;37.40;;;21.27;;
23608;SDS011;11982;50.810;4.442;2023-04-03T06:52:09;42.13;;;23.88;;
23608;SDS011;11982;50.810;4.442;2023-04-03T06:54:37;36.90;;;22.90;;
23608;SDS011;11982;50.810;4.442;2023-04-03T06:57:03;38.35;;;23.25;;
23608;SDS011;11982;50.810;4.442;2023-04-03T06:59:29;36.90;;;22.80;;
23608;SDS011;11982;50.810;4.442;2023-04-03T07:01:55;33.60;;;22.45;;
23608;SDS011;11982;50.810;4.442;2023-04-03T07:04:20;38.55;;;22.75;;
23608;SDS011;11982;50.810;4.442;2023-04-03T07:06:46;43.45;;;22.73;;
23608;SDS011;11982;50.810;4.442;2023-04-03T07:09:13;36.17;;;22.20;;
23608;SDS011;11982;50.810;4.442;2023-04-03T07:11:39;39.63;;;23.60;;
23608;SDS011;11982;50.810;4.442;2023-04-03T07:14:05;37.53;;;21.40;;
23608;SDS011;11982;50.810;4.442;2023-04-03T07:16:33;35.65;;;21.10;;
23608;SDS011;11982;50.810;4.442;2023-04-03T07:19:02;34.13;;;21.98;;
23608;SDS011;11982;50.810;4.442;2023-04-03T07:21:28;33.33;;;20.73;;
23608;SDS011;11982;50.810;4.442;2023-04-03T07:23:54;33.55;;;20.50;;
23608;SDS011;11982;50.810;4.442;2023-04-03T07:26:20;29.88;;;19.45;;
23608;SDS011;11982;50.810;4.442;2023-04-03T07:28:46;33.80;;;19.90;;
23608;SDS011;11982;50.810;4.442;2023-04-03T07:31:14;31.45;;;19.27;;
23608;SDS011;11982;50.810;4.442;2023-04-03T07:33:42;29.65;;;18.70;;
23608;SDS011;11982;50.810;4.442;2023-04-03T07:36:08;28.85;;;18.88;;
23608;SDS011;11982;50.810;4.442;2023-04-03T07:38:36;27.40;;;17.58;;
23608;SDS011;11982;50.810;4.442;2023-04-03T07:41:03;27.42;;;17.75;;
23608;SDS011;11982;50.810;4.442;2023-04-03T07:43:29;28.90;;;17.98;;
23608;SDS011;11982;50.810;4.442;2023-04-03T07:45:55;25.50;;;17.00;;
23608;SDS011;11982;50.810;4.442;2023-04-03T07:48:21;29.90;;;17.13;;
23608;SDS011;11982;50.810;4.442;2023-04-03T07:50:48;25.70;;;15.68;;
23608;SDS011;11982;50.810;4.442;2023-04-03T07:53:14;24.63;;;16.23;;
23608;SDS011;11982;50.810;4.442;2023-04-03T07:55:41;22.83;;;16.35;;
23608;SDS011;11982;50.810;4.442;2023-04-03T07:58:14;24.90;;;15.48;;
23608;SDS011;11982;50.810;4.442;2023-04-03T08:00:41;26.33;;;15.70;;
23608;SDS011;11982;50.810;4.442;2023-04-03T08:03:09;26.52;;;15.25;;
23608;SDS011;11982;50.810;4.442;2023-04-03T08:05:40;26.80;;;14.13;;
23608;SDS011;11982;50.810;4.442;2023-04-03T08:08:07;21.85;;;14.98;;
23608;SDS011;11982;50.810;4.442;2023-04-03T08:10:33;18.50;;;12.60;;
23608;SDS011;11982;50.810;4.442;2023-04-03T08:12:59;22.95;;;13.02;;
23608;SDS011;11982;50.810;4.442;2023-04-03T08:15:26;23.88;;;13.07;;
23608;SDS011;11982;50.810;4.442;2023-04-03T08:17:52;21.95;;;12.35;;
23608;SDS011;11982;50.810;4.442;2023-04-03T08:20:19;28.00;;;11.90;;
23608;SDS011;11982;50.810;4.442;2023-04-03T08:22:45;21.05;;;11.13;;
23608;SDS011;11982;50.810;4.442;2023-04-03T08:25:13;24.35;;;11.45;;
23608;SDS011;11982;50.810;4.442;2023-04-03T08:27:40;19.45;;;10.68;;
23608;SDS011;11982;50.810;4.442;2023-04-03T08:30:06;19.92;;;10.88;;
23608;SDS011;11982;50.810;4.442;2023-04-03T08:32:33;21.67;;;10.70;;
23608;SDS011;11982;50.810;4.442;2023-04-03T08:35:00;21.67;;;11.07;;
23608;SDS011;11982;50.810;4.442;2023-04-03T08:37:25;16.90;;;9.90;;
23608;SDS011;11982;50.810;4.442;2023-04-03T08:39:51;19.45;;;10.23;;
23608;SDS011;11982;50.810;4.442;2023-04-03T08:50:18;19.48;;;9.70;;
23608;SDS011;11982;50.810;4.442;2023-04-03T08:52:49;17.77;;;9.30;;
23608;SDS011;11982;50.810;4.442;2023-04-03T08:58:02;15.38;;;9.55;;
23608;SDS011;11982;50.810;4.442;2023-04-03T09:00:53;14.73;;;8.80;;
23608;SDS011;11982;50.810;4.442;2023-04-03T09:03:24;16.48;;;8.18;;
23608;SDS011;11982;50.810;4.442;2023-04-03T09:05:54;11.93;;;6.80;;
23608;SDS011;11982;50.810;4.442;2023-04-03T09:08:25;13.00;;;7.45;;
23608;SDS011;11982;50.810;4.442;2023-04-03T09:16:59;12.32;;;7.10;;
23608;SDS011;11982;50.810;4.442;2023-04-03T09:22:02;10.25;;;5.82;;
23608;SDS011;11982;50.810;4.442;2023-04-03T09:24:37;9.25;;;4.80;;
23608;SDS011;11982;50.810;4.442;2023-04-03T09:27:04;7.35;;;4.60;;
23608;SDS011;11982;50.810;4.442;2023-04-03T09:29:32;7.55;;;4.30;;
23608;SDS011;11982;50.810;4.442;2023-04-03T09:32:11;9.95;;;4.15;;
23608;SDS011;11982;50.810;4.442;2023-04-03T09:34:46;10.27;;;4.00;;
23608;SDS011;11982;50.810;4.442;2023-04-03T09:37:33;11.32;;;4.65;;
23608;SDS011;11982;50.810;4.442;2023-04-03T09:40:02;10.52;;;4.55;;
23608;SDS011;11982;50.810;4.442;2023-04-03T09:42:29;10.52;;;4.35;;
23608;SDS011;11982;50.810;4.442;2023-04-03T09:45:04;9.95;;;4.35;;
23608;SDS011;11982;50.810;4.442;2023-04-03T09:52:38;11.45;;;4.40;;
23608;SDS011;11982;50.810;4.442;2023-04-03T09:55:07;12.88;;;4.20;;
23608;SDS011;11982;50.810;4.442;2023-04-03T09:57:38;7.72;;;4.20;;
23608;SDS011;11982;50.810;4.442;2023-04-03T10:00:04;8.50;;;4.18;;
23608;SDS011;11982;50.810;4.442;2023-04-03T10:02:40;12.05;;;3.90;;
23608;SDS011;11982;50.810;4.442;2023-04-03T10:05:27;11.07;;;3.90;;
23608;SDS011;11982;50.810;4.442;2023-04-03T10:08:06;10.02;;;4.22;;
23608;SDS011;11982;50.810;4.442;2023-04-03T10:10:34;8.18;;;3.67;;
23608;SDS011;11982;50.810;4.442;2023-04-03T10:13:03;7.90;;;4.05;;
23608;SDS011;11982;50.810;4.442;2023-04-03T10:15:54;9.63;;;4.43;;
23608;SDS011;11982;50.810;4.442;2023-04-03T10:20:52;11.07;;;4.30;;
23608;SDS011;11982;50.810;4.442;2023-04-03T10:23:26;7.70;;;4.13;;
23608;SDS011;11982;50.810;4.442;2023-04-03T10:31:13;7.32;;;4.10;;
23608;SDS011;11982;50.810;4.442;2023-04-03T10:36:37;11.88;;;3.92;;
23608;SDS011;11982;50.810;4.442;2023-04-03T10:42:11;9.38;;;4.00;;
23608;SDS011;11982;50.810;4.442;2023-04-03T10:47:36;10.43;;;3.90;;
23608;SDS011;11982;50.810;4.442;2023-04-03T10:52:47;7.53;;;3.13;;
23608;SDS011;11982;50.810;4.442;2023-04-03T10:58:26;8.05;;;3.03;;
23608;SDS011;11982;50.810;4.442;2023-04-03T11:00:57;7.97;;;2.88;;
23608;SDS011;11982;50.810;4.442;2023-04-03T11:03:33;5.97;;;2.80;;
23608;SDS011;11982;50.810;4.442;2023-04-03T11:06:10;7.72;;;2.88;;
23608;SDS011;11982;50.810;4.442;2023-04-03T11:08:49;8.48;;;3.30;;
23608;SDS011;11982;50.810;4.442;2023-04-03T11:11:25;12.20;;;3.67;;
23608;SDS011;11982;50.810;4.442;2023-04-03T11:16:24;9.60;;;3.50;;
23608;SDS011;11982;50.810;4.442;2023-04-03T11:19:10;7.50;;;3.20;;
23608;SDS011;11982;50.810;4.442;2023-04-03T11:21:48;7.63;;;3.35;;
23608;SDS011;11982;50.810;4.442;2023-04-03T11:24:24;7.10;;;3.25;;
23608;SDS011;11982;50.810;4.442;2023-04-03T11:26:52;10.52;;;2.90;;
23608;SDS011;11982;50.810;4.442;2023-04-03T11:29:21;5.13;;;2.42;;
23608;SDS011;11982;50.810;4.442;2023-04-03T11:34:40;8.65;;;2.65;;
23608;SDS011;11982;50.810;4.442;2023-04-03T11:40:02;8.25;;;2.70;;
23608;SDS011;11982;50.810;4.442;2023-04-03T11:42:36;7.38;;;2.17;;
23608;SDS011;11982;50.810;4.442;2023-04-03T11:47:46;5.68;;;2.30;;
23608;SDS011;11982;50.810;4.442;2023-04-03T11:53:44;6.82;;;2.70;;
23608;SDS011;11982;50.810;4.442;2023-04-03T11:55:59;6.35;;;2.58;;
23608;SDS011;11982;50.810;4.442;2023-04-03T11:58:33;6.70;;;2.60;;
23608;SDS011;11982;50.810;4.442;2023-04-03T12:16:22;10.63;;;2.47;;
23608;SDS011;11982;50.810;4.442;2023-04-03T12:29:29;5.97;;;2.83;;
23608;SDS011;11982;50.810;4.442;2023-04-03T12:40:07;6.13;;;2.50;;
23608;SDS011;11982;50.810;4.442;2023-04-03T12:45:26;6.65;;;2.30;;
23608;SDS011;11982;50.810;4.442;2023-04-03T12:47:53;4.85;;;1.77;;
23608;SDS011;11982;50.810;4.442;2023-04-03T12:55:30;6.60;;;2.50;;
23608;SDS011;11982;50.810;4.442;2023-04-03T12:57:56;4.40;;;1.92;;
23608;SDS011;11982;50.810;4.442;2023-04-03T13:00:32;5.15;;;2.25;;
23608;SDS011;11982;50.810;4.442;2023-04-03T13:03:01;5.65;;;1.90;;
23608;SDS011;11982;50.810;4.442;2023-04-03T13:05:28;5.65;;;2.35;;
23608;SDS011;11982;50.810;4.442;2023-04-03T13:08:00;5.72;;;1.90;;
23608;SDS011;11982;50.810;4.442;2023-04-03T13:10:35;9.13;;;1.77;;
23608;SDS011;11982;50.810;4.442;2023-04-03T13:13:17;8.73;;;1.95;;
23608;SDS011;11982;50.810;4.442;2023-04-03T13:15:45;5.47;;;1.95;;
23608;SDS011;11982;50.810;4.442;2023-04-03T13:18:30;2.92;;;1.40;;
23608;SDS011;11982;50.810;4.442;2023-04-03T13:21:10;4.13;;;2.00;;
23608;SDS011;11982;50.810;4.442;2023-04-03T13:23:43;3.30;;;1.63;;
23608;SDS011;11982;50.810;4.442;2023-04-03T13:26:12;4.10;;;1.40;;
23608;SDS011;11982;50.810;4.442;2023-04-03T13:28:41;7.40;;;1.73;;
23608;SDS011;11982;50.810;4.442;2023-04-03T13:31:17;4.53;;;1.58;;
23608;SDS011;11982;50.810;4.442;2023-04-03T13:33:57;3.60;;;1.50;;
23608;SDS011;11982;50.810;4.442;2023-04-03T13:41:41;6.60;;;1.95;;
23608;SDS011;11982;50.810;4.442;2023-04-03T13:44:42;2.47;;;1.60;;
23608;SDS011;11982;50.810;4.442;2023-04-03T13:52:20;3.75;;;1.88;;
23608;SDS011;11982;50.810;4.442;2023-04-03T13:55:23;4.57;;;2.40;;
23608;SDS011;11982;50.810;4.442;2023-04-03T14:00:30;6.90;;;2.30;;
23608;SDS011;11982;50.810;4.442;2023-04-03T14:02:56;7.45;;;2.30;;
23608;SDS011;11982;50.810;4.442;2023-04-03T14:05:23;6.15;;;2.15;;
23608;SDS011;11982;50.810;4.442;2023-04-03T14:07:50;7.93;;;2.60;;
23608;SDS011;11982;50.810;4.442;2023-04-03T14:10:17;5.50;;;2.28;;
23608;SDS011;11982;50.810;4.442;2023-04-03T14:12:43;6.97;;;2.47;;
23608;SDS011;11982;50.810;4.442;2023-04-03T14:15:43;6.53;;;1.90;;
23608;SDS011;11982;50.810;4.442;2023-04-03T14:18:01;10.77;;;2.65;;
23608;SDS011;11982;50.810;4.442;2023-04-03T14:20:27;5.43;;;2.17;;
23608;SDS011;11982;50.810;4.442;2023-04-03T14:22:53;5.00;;;2.15;;
23608;SDS011;11982;50.810;4.442;2023-04-03T14:25:19;8.52;;;2.13;;
23608;SDS011;11982;50.810;4.442;2023-04-03T14:27:49;5.03;;;2.30;;
23608;SDS011;11982;50.810;4.442;2023-04-03T14:30:22;7.18;;;2.03;;
23608;SDS011;11982;50.810;4.442;2023-04-03T14:32:50;5.68;;;2.03;;
23608;SDS011;11982;50.810;4.442;2023-04-03T14:35:17;5.70;;;2.40;;
23608;SDS011;11982;50.810;4.442;2023-04-03T14:37:44;6.38;;;2.10;;
23608;SDS011;11982;50.810;4.442;2023-04-03T14:40:15;7.53;;;2.15;;
23608;SDS011;11982;50.810;4.442;2023-04-03T14:42:43;4.53;;;1.75;;
23608;SDS011;11982;50.810;4.442;2023-04-03T14:45:10;5.68;;;2.30;;
23608;SDS011;11982;50.810;4.442;2023-04-03T14:47:40;7.22;;;2.33;;
23608;SDS011;11982;50.810;4.442;2023-04-03T14:50:17;5.65;;;1.77;;
23608;SDS011;11982;50.810;4.442;2023-04-03T14:52:49;3.92;;;1.70;;
23608;SDS011;11982;50.810;4.442;2023-04-03T14:55:17;4.43;;;2.10;;
23608;SDS011;11982;50.810;4.442;2023-04-03T14:57:44;6.65;;;1.83;;
23608;SDS011;11982;50.810;4.442;2023-04-03T15:00:18;6.78;;;2.20;;
23608;SDS011;11982;50.810;4.442;2023-04-03T15:02:45;5.65;;;2.00;;
23608;SDS011;11982;50.810;4.442;2023-04-03T15:05:12;5.30;;;1.90;;
23608;SDS011;11982;50.810;4.442;2023-04-03T15:07:40;5.32;;;1.70;;
23608;SDS011;11982;50.810;4.442;2023-04-03T15:10:15;3.47;;;1.90;;
23608;SDS011;11982;50.810;4.442;2023-04-03T15:12:43;4.97;;;2.22;;
23608;SDS011;11982;50.810;4.442;2023-04-03T15:15:10;4.97;;;2.30;;
23608;SDS011;11982;50.810;4.442;2023-04-03T15:17:36;6.55;;;2.17;;
23608;SDS011;11982;50.810;4.442;2023-04-03T15:20:02;4.82;;;2.03;;
23608;SDS011;11982;50.810;4.442;2023-04-03T15:22:28;3.00;;;1.95;;
23608;SDS011;11982;50.810;4.442;2023-04-03T15:24:54;7.57;;;2.53;;
23608;SDS011;11982;50.810;4.442;2023-04-03T15:27:20;4.43;;;2.03;;
23608;SDS011;11982;50.810;4.442;2023-04-03T15:29:45;6.70;;;2.40;;
23608;SDS011;11982;50.810;4.442;2023-04-03T15:32:11;8.65;;;2.65;;
23608;SDS011;11982;50.810;4.442;2023-04-03T15:34:38;6.80;;;2.50;;
23608;SDS011;11982;50.810;4.442;2023-04-03T15:37:04;6.05;;;2.50;;
23608;SDS011;11982;50.810;4.442;2023-04-03T15:39:30;7.47;;;2.53;;
23608;SDS011;11982;50.810;4.442;2023-04-03T15:41:57;9.98;;;2.55;;
23608;SDS011;11982;50.810;4.442;2023-04-03T15:44:28;4.53;;;2.17;;
23608;SDS011;11982;50.810;4.442;2023-04-03T15:46:54;7.32;;;2.40;;
23608;SDS011;11982;50.810;4.442;2023-04-03T15:49:20;3.97;;;2.10;;
23608;SDS011;11982;50.810;4.442;2023-04-03T15:51:47;3.83;;;1.85;;
23608;SDS011;11982;50.810;4.442;2023-04-03T15:54:12;3.15;;;2.03;;
23608;SDS011;11982;50.810;4.442;2023-04-03T15:56:38;4.10;;;2.63;;
23608;SDS011;11982;50.810;4.442;2023-04-03T15:59:04;4.78;;;2.80;;
23608;SDS011;11982;50.810;4.442;2023-04-03T16:01:29;8.38;;;2.55;;
23608;SDS011;11982;50.810;4.442;2023-04-03T16:03:56;6.38;;;2.80;;
23608;SDS011;11982;50.810;4.442;2023-04-03T16:06:22;8.52;;;2.85;;
23608;SDS011;11982;50.810;4.442;2023-04-03T16:08:49;6.10;;;2.75;;
23608;SDS011;11982;50.810;4.442;2023-04-03T16:11:16;7.55;;;3.03;;
23608;SDS011;11982;50.810;4.442;2023-04-03T16:13:41;5.68;;;2.40;;
23608;SDS011;11982;50.810;4.442;2023-04-03T16:16:07;8.18;;;3.10;;
23608;SDS011;11982;50.810;4.442;2023-04-03T16:18:34;4.45;;;2.60;;
23608;SDS011;11982;50.810;4.442;2023-04-03T16:21:00;7.00;;;2.58;;
23608;SDS011;11982;50.810;4.442;2023-04-03T16:23:26;6.00;;;2.70;;
23608;SDS011;11982;50.810;4.442;2023-04-03T16:25:52;5.32;;;2.75;;
23608;SDS011;11982;50.810;4.442;2023-04-03T16:28:18;6.43;;;2.72;;
23608;SDS011;11982;50.810;4.442;2023-04-03T16:30:44;6.45;;;3.10;;
23608;SDS011;11982;50.810;4.442;2023-04-03T16:33:12;4.88;;;2.83;;
23608;SDS011;11982;50.810;4.442;2023-04-03T16:35:38;6.88;;;2.38;;
23608;SDS011;11982;50.810;4.442;2023-04-03T16:38:07;5.22;;;2.53;;
23608;SDS011;11982;50.810;4.442;2023-04-03T16:40:33;5.10;;;2.67;;
23608;SDS011;11982;50.810;4.442;2023-04-03T16:43:00;6.05;;;2.80;;